Weather  for  Sandakan  -  Malaysia    Malaysia

26 °C (79 °F)

Current METAR for Sandakan is :

WBKS 210200Z 28007KT 250V310 9999 TS SCT015 FEW016CB BKN280 26/23 Q1010


This is a report for Sandakan - Malaysia.
The report was made one hour and 1 minutes ago, at 02:00 UTC .
The wind was blowing at a speed of 3.6 meters per second (8.1 miles per hour) from west (280°), varying between west/southwest (250°) and northwest (310°).
The temperature was 26 °C (79 °F), with a dew-point at 23 °C (73 °F).
The temperature felt like 28 °C (82 °F).
The atmospheric pressure was 1010 hPa (29.83 inHg).
The relative humidity was 83.6%.
There were scattered clouds at a height of 457 meters (1500 feet), a few cumulonimbus clouds at a height of 488 meters (1600 feet) and broken clouds at a height of 8534 meters (28000 feet).
The overall visibility was greater than 10 kilometers (6.2 miles).
Currently thunderstorm.


Country :   A   B   C   D   E   F   G   H   I   J   K   L   M   N   O   P   Q   R   S   T   U   V   W   Y   Z


Site Info  |  Disclaimer  |  Credits  |  Privacy
Contact us  |  Add to favorites
© 2013-2018 METARs - All rights reserved